createdAt,value
2022-08-07T00:01:44.540Z,99387.98
2022-08-07T00:02:56.927Z,99382.99
2022-08-07T00:03:58.992Z,99385.92
2022-08-07T00:05:00.714Z,99384.30
2022-08-07T00:06:06.453Z,99385.32
2022-08-07T00:07:09.393Z,99387.39
2022-08-07T00:08:11.383Z,99383.54
2022-08-07T00:09:21.311Z,99388.14
2022-08-07T00:10:25.843Z,99385.86
2022-08-07T00:11:32.956Z,99387.88
2022-08-07T00:12:34.977Z,99393.20
2022-08-07T00:13:57.314Z,99390.92
2022-08-07T00:15:01.084Z,99393.31
2022-08-07T00:16:05.259Z,99396.77
2022-08-07T00:17:09.269Z,99397.54
2022-08-07T00:18:19.889Z,99396.23
2022-08-07T00:20:00.188Z,99398.95
2022-08-07T00:20:51.417Z,99394.88
2022-08-07T00:21:57.481Z,99395.30
2022-08-07T00:23:08.063Z,99394.29
2022-08-07T00:24:11.350Z,99393.52
2022-08-07T00:25:17.263Z,99394.93
2022-08-07T00:26:58.909Z,99392.10
2022-08-07T00:27:53.404Z,99391.13
2022-08-07T00:28:58.266Z,99395.14
2022-08-07T00:29:59.930Z,99394.16
2022-08-07T00:31:12.328Z,99392.27
2022-08-07T00:32:14.950Z,99395.58
2022-08-07T00:33:17.768Z,99393.84
2022-08-07T00:34:19.608Z,99395.58
2022-08-07T00:35:24.499Z,99394.27
2022-08-07T00:36:26.300Z,99395.90
2022-08-07T00:37:30.946Z,99396.83
2022-08-07T00:38:50.403Z,99396.71
2022-08-07T00:39:56.040Z,99395.73
2022-08-07T00:40:58.421Z,99394.81
2022-08-07T00:42:05.276Z,99395.25
2022-08-07T00:43:09.653Z,99395.79
2022-08-07T00:44:12.367Z,99395.67
2022-08-07T00:45:17.007Z,99402.83
2022-08-07T00:46:19.207Z,99402.62
2022-08-07T00:48:09.378Z,99396.16
2022-08-07T00:48:43.386Z,99394.20
2022-08-07T00:50:19.653Z,99393.23
2022-08-07T00:51:08.311Z,99391.48
2022-08-07T00:52:10.374Z,99387.91
2022-08-07T00:53:13.626Z,99391.27
2022-08-07T00:54:19.841Z,99395.45
2022-08-07T00:55:25.325Z,99393.48
2022-08-07T00:56:44.677Z,99398.38
2022-08-07T00:57:55.366Z,99396.19
2022-08-07T00:58:59.066Z,99400.75
2022-08-07T01:00:01.219Z,99398.64
2022-08-07T01:01:04.940Z,99400.38
2022-08-07T01:02:14.093Z,99401.13
2022-08-07T01:03:57.201Z,99400.30
2022-08-07T01:04:53.602Z,99398.74
2022-08-07T01:06:01.327Z,99401.61
2022-08-07T01:07:04.655Z,99404.27
2022-08-07T01:08:06.567Z,99406.07
2022-08-07T01:09:11.877Z,99407.96
2022-08-07T01:10:33.767Z,99404.75
2022-08-07T01:12:27.623Z,99408.93
2022-08-07T01:12:59.790Z,99407.62
2022-08-07T01:14:02.405Z,99408.60
2022-08-07T01:15:06.511Z,99412.61
2022-08-07T01:16:15.132Z,99412.30
2022-08-07T01:17:34.584Z,99411.59
2022-08-07T01:18:38.046Z,99413.55
2022-08-07T01:19:42.025Z,99415.05
2022-08-07T01:21:17.516Z,99414.72
2022-08-07T01:22:29.437Z,99416.73
2022-08-07T01:23:36.886Z,99415.20
2022-08-07T01:24:44.150Z,99412.92
2022-08-07T01:25:55.786Z,99415.36
2022-08-07T01:27:00.010Z,99416.50
2022-08-07T01:28:02.471Z,99413.52
2022-08-07T01:29:04.806Z,99415.84
2022-08-07T01:30:08.222Z,99417.64
2022-08-07T01:31:15.420Z,99415.35
2022-08-07T01:32:22.503Z,99415.40
2022-08-07T01:33:30.198Z,99417.95
2022-08-07T01:34:49.387Z,99413.83
2022-08-07T01:35:53.783Z,99414.04
2022-08-07T01:37:00.462Z,99414.62
2022-08-07T01:38:04.217Z,99413.20
2022-08-07T01:39:09.982Z,99415.98
2022-08-07T01:40:19.496Z,99414.83
2022-08-07T01:41:29.779Z,99410.72
2022-08-07T01:42:38.251Z,99411.95
2022-08-07T01:43:44.080Z,99412.45
2022-08-07T01:44:48.064Z,99413.52
2022-08-07T01:45:54.620Z,99417.10
2022-08-07T01:46:58.490Z,99415.52
2022-08-07T01:48:19.102Z,99415.43
2022-08-07T01:49:24.033Z,99413.15
2022-08-07T01:50:30.482Z,99415.04
2022-08-07T01:52:03.418Z,99410.92
2022-08-07T01:52:58.536Z,99409.29
2022-08-07T01:54:12.784Z,99408.86
2022-08-07T01:55:39.619Z,99408.20
2022-08-07T01:56:49.711Z,99406.52
2022-08-07T01:58:06.921Z,99405.71
2022-08-07T01:59:30.865Z,99405.06
2022-08-07T02:00:49.069Z,99403.20
2022-08-07T02:02:02.433Z,99401.41
2022-08-07T02:03:22.038Z,99400.50
2022-08-07T02:04:56.334Z,99397.88
2022-08-07T02:06:08.826Z,99397.39
2022-08-07T02:07:50.039Z,99401.40
2022-08-07T02:09:03.686Z,99401.62
2022-08-07T02:10:09.135Z,99400.79
2022-08-07T02:11:30.733Z,99404.04
2022-08-07T02:12:42.506Z,99408.01
2022-08-07T02:14:00.754Z,99408.26
2022-08-07T02:15:08.227Z,99407.21
2022-08-07T02:16:16.059Z,99403.52
2022-08-07T02:17:27.555Z,99403.84
2022-08-07T02:18:38.312Z,99404.74
2022-08-07T02:20:04.739Z,99401.60
2022-08-07T02:21:16.050Z,99403.10
2022-08-07T02:22:20.728Z,99405.05
2022-08-07T02:23:30.461Z,99405.19
2022-08-07T02:24:39.347Z,99404.35
2022-08-07T02:26:30.571Z,99403.87
2022-08-07T02:27:14.142Z,99398.77
2022-08-07T02:28:24.606Z,99399.09
2022-08-07T02:29:30.675Z,99399.83
2022-08-07T02:30:36.449Z,99400.64
2022-08-07T02:31:39.905Z,99397.33
2022-08-07T02:33:03.939Z,99398.85
2022-08-07T02:34:11.479Z,99399.38
2022-08-07T02:36:28.290Z,99395.75
2022-08-07T02:36:50.373Z,99396.08
2022-08-07T02:37:56.189Z,99396.18
2022-08-07T02:39:01.557Z,99394.66
2022-08-07T02:40:30.020Z,99397.38
2022-08-07T02:41:36.982Z,99398.08
2022-08-07T02:42:40.565Z,99398.27
2022-08-07T02:43:48.921Z,99395.60
2022-08-07T02:44:54.918Z,99395.92
2022-08-07T02:46:04.426Z,99396.30
2022-08-07T02:47:19.884Z,99395.42
2022-08-07T02:48:26.968Z,99396.71
2022-08-07T02:49:56.452Z,99397.04
2022-08-07T02:50:56.366Z,99403.79
2022-08-07T02:52:04.097Z,99404.94
2022-08-07T02:53:12.083Z,99404.75
2022-08-07T02:54:18.122Z,99408.44
2022-08-07T02:55:27.736Z,99412.64
2022-08-07T02:56:47.901Z,99415.23
2022-08-07T02:57:52.368Z,99417.63
2022-08-07T02:58:55.513Z,99418.23
2022-08-07T03:00:01.258Z,99413.35
2022-08-07T03:01:18.478Z,99416.77
2022-08-07T03:02:21.615Z,99413.46
2022-08-07T03:03:29.652Z,99417.84
2022-08-07T03:04:54.944Z,99417.55
2022-08-07T03:05:57.890Z,99416.85
2022-08-07T03:07:07.360Z,99414.68
2022-08-07T03:08:14.138Z,99415.00
2022-08-07T03:09:43.200Z,99412.02
2022-08-07T03:10:47.030Z,99409.31
2022-08-07T03:11:57.913Z,99405.23
2022-08-07T03:13:07.128Z,99404.80
2022-08-07T03:14:11.570Z,99398.91
2022-08-07T03:15:13.980Z,99402.76
2022-08-07T03:16:36.749Z,99403.47
2022-08-07T03:17:52.810Z,99402.16
2022-08-07T03:18:57.473Z,99404.89
2022-08-07T03:20:00.648Z,99403.58
2022-08-07T03:21:08.491Z,99405.36
2022-08-07T03:22:18.913Z,99407.54
2022-08-07T03:23:21.893Z,99402.16
2022-08-07T03:24:36.718Z,99406.70
2022-08-07T03:25:41.999Z,99408.54
2022-08-07T03:26:51.298Z,99411.63
2022-08-07T03:28:09.536Z,99406.32
2022-08-07T03:29:30.443Z,99409.19
2022-08-07T03:30:33.703Z,99409.02
2022-08-07T03:31:42.649Z,99406.48
2022-08-07T03:32:58.519Z,99407.83
2022-08-07T03:34:03.419Z,99410.27
2022-08-07T03:35:17.472Z,99413.52
2022-08-07T03:36:25.845Z,99414.77
2022-08-07T03:37:32.528Z,99410.92
2022-08-07T03:38:41.389Z,99415.59
2022-08-07T03:39:59.128Z,99421.77
2022-08-07T03:41:03.798Z,99417.00
2022-08-07T03:42:07.484Z,99417.71
2022-08-07T03:43:14.639Z,99418.91
2022-08-07T03:44:21.769Z,99415.50
2022-08-07T03:45:43.273Z,99421.51
2022-08-07T03:47:11.004Z,99419.25
2022-08-07T03:48:11.504Z,99417.36
2022-08-07T03:49:13.782Z,99417.54
2022-08-07T03:50:23.413Z,99416.36
2022-08-07T03:51:31.039Z,99419.78
2022-08-07T03:52:51.890Z,99420.23
2022-08-07T03:54:33.856Z,99420.36
2022-08-07T03:55:17.650Z,99425.19
2022-08-07T03:56:32.773Z,99424.72
2022-08-07T03:58:32.707Z,99424.73
2022-08-07T03:59:09.576Z,99428.52
2022-08-07T04:00:18.297Z,99431.74
2022-08-07T04:01:26.997Z,99429.42
2022-08-07T04:02:29.365Z,99432.64
2022-08-07T04:03:38.867Z,99434.81
2022-08-07T04:04:55.182Z,99431.73
2022-08-07T04:06:00.461Z,99439.18
2022-08-07T04:07:02.679Z,99436.25
2022-08-07T04:08:21.343Z,99440.61
2022-08-07T04:09:24.387Z,99437.95
2022-08-07T04:10:31.142Z,99439.64
2022-08-07T04:12:27.639Z,99439.49
2022-08-07T04:12:57.470Z,99440.75
2022-08-07T04:14:10.970Z,99440.70
2022-08-07T04:15:24.203Z,99436.25
2022-08-07T04:16:30.870Z,99438.38
2022-08-07T04:18:56.632Z,99440.71
2022-08-07T04:19:01.623Z,99440.45
2022-08-07T04:20:11.223Z,99439.77
2022-08-07T04:21:13.222Z,99438.36
2022-08-07T04:22:18.926Z,99438.69
2022-08-07T04:23:21.664Z,99441.85
2022-08-07T04:24:30.508Z,99444.36
2022-08-07T04:25:39.383Z,99441.45
2022-08-07T04:26:43.619Z,99441.91
2022-08-07T04:27:59.491Z,99439.84
2022-08-07T04:29:04.339Z,99443.40
2022-08-07T04:30:11.829Z,99439.71
2022-08-07T04:31:39.043Z,99438.38
2022-08-07T04:32:58.210Z,99439.24
2022-08-07T04:34:01.823Z,99439.42
2022-08-07T04:35:06.431Z,99438.50
2022-08-07T04:36:14.821Z,99437.10
2022-08-07T04:37:30.617Z,99436.13
2022-08-07T04:38:40.627Z,99435.80
2022-08-07T04:39:47.856Z,99434.72
2022-08-07T04:40:56.569Z,99433.31
2022-08-07T04:42:04.013Z,99436.08
2022-08-07T04:43:06.606Z,99434.02
2022-08-07T04:44:18.473Z,99434.85
2022-08-07T04:45:57.406Z,99436.96
2022-08-07T04:47:56.676Z,99436.96
2022-08-07T04:49:17.768Z,99439.98
2022-08-07T04:50:32.431Z,99440.08
2022-08-07T04:52:10.398Z,99439.69
2022-08-07T04:53:40.126Z,99441.26
2022-08-07T04:54:50.677Z,99441.99
2022-08-07T04:58:15.191Z,99442.12
2022-08-07T04:58:15.884Z,99445.35
2022-08-07T05:00:09.666Z,99446.58
2022-08-07T05:01:02.711Z,99447.46
2022-08-07T05:02:16.670Z,99451.03
2022-08-07T05:04:07.737Z,99448.05
2022-08-07T05:05:52.077Z,99446.65
2022-08-07T05:07:19.839Z,99453.20
2022-08-07T05:08:59.782Z,99452.52
2022-08-07T05:09:55.194Z,99455.46
2022-08-07T05:11:07.212Z,99459.05
2022-08-07T05:12:27.255Z,99461.15
2022-08-07T05:14:56.174Z,99462.07
2022-08-07T05:15:23.182Z,99464.55
2022-08-07T05:16:33.185Z,99464.56
2022-08-07T05:17:52.577Z,99465.81
2022-08-07T05:19:08.777Z,99471.34
2022-08-07T05:20:16.139Z,99472.23
2022-08-07T05:21:59.228Z,99470.61
2022-08-07T05:22:52.942Z,99474.12
2022-08-07T05:23:59.826Z,99472.23
2022-08-07T05:25:02.698Z,99472.88
2022-08-07T05:26:23.638Z,99472.15
2022-08-07T05:28:15.862Z,99469.08
2022-08-07T05:28:57.737Z,99470.53
2022-08-07T05:30:03.674Z,99470.46
2022-08-07T05:31:08.435Z,99470.56
2022-08-07T05:32:12.861Z,99472.89
2022-08-07T05:33:17.987Z,99472.92
2022-08-07T05:34:26.378Z,99473.46
2022-08-07T05:35:41.952Z,99471.80
2022-08-07T05:36:48.979Z,99472.67
2022-08-07T05:38:08.678Z,99475.14
2022-08-07T05:40:06.792Z,99474.49
2022-08-07T05:40:41.874Z,99472.62
2022-08-07T05:42:00.750Z,99478.17
2022-08-07T05:43:05.757Z,99473.80
2022-08-07T05:44:13.966Z,99474.33
2022-08-07T05:45:28.085Z,99476.41
2022-08-07T05:46:44.548Z,99476.80
2022-08-07T05:48:01.843Z,99477.08
2022-08-07T05:49:14.413Z,99477.30
2022-08-07T05:50:18.636Z,99477.09
2022-08-07T05:51:22.522Z,99478.77
2022-08-07T05:52:30.054Z,99476.64
2022-08-07T05:54:12.272Z,99480.41
2022-08-07T05:54:58.772Z,99475.20
2022-08-07T05:56:10.038Z,99470.69
2022-08-07T05:57:17.889Z,99474.92
2022-08-07T05:58:36.146Z,99474.23
2022-08-07T05:59:57.179Z,99475.98
2022-08-07T06:01:04.974Z,99473.09
2022-08-07T06:02:13.841Z,99471.16
2022-08-07T06:03:23.697Z,99473.84
2022-08-07T06:04:30.200Z,99472.15
2022-08-07T06:05:34.510Z,99472.53
2022-08-07T06:06:46.088Z,99474.80
2022-08-07T06:08:29.165Z,99474.79
2022-08-07T06:09:14.794Z,99472.02
2022-08-07T06:10:19.635Z,99472.66
2022-08-07T06:11:22.833Z,99474.30
2022-08-07T06:12:31.882Z,99477.23
2022-08-07T06:14:11.850Z,99475.48
2022-08-07T06:15:05.543Z,99477.10
2022-08-07T06:16:10.159Z,99471.97
2022-08-07T06:17:15.534Z,99475.08
2022-08-07T06:18:21.572Z,99474.27
2022-08-07T06:19:49.890Z,99479.93
2022-08-07T06:20:51.051Z,99476.52
2022-08-07T06:22:14.543Z,99476.42
2022-08-07T06:24:38.095Z,99474.42
2022-08-07T06:24:57.016Z,99477.03
2022-08-07T06:26:01.484Z,99479.33
2022-08-07T06:27:04.730Z,99479.69
2022-08-07T06:28:09.630Z,99482.09
2022-08-07T06:29:15.842Z,99484.77
2022-08-07T06:30:32.196Z,99483.71
2022-08-07T06:31:49.790Z,99485.75
2022-08-07T06:32:53.019Z,99482.65
2022-08-07T06:33:55.623Z,99484.40
2022-08-07T06:35:00.620Z,99485.23
2022-08-07T06:36:06.774Z,99487.26
2022-08-07T06:37:43.478Z,99491.16
2022-08-07T06:38:59.515Z,99488.34
2022-08-07T06:40:16.130Z,99488.45
2022-08-07T06:42:01.819Z,99491.98
2022-08-07T06:42:53.602Z,99490.81
2022-08-07T06:44:25.853Z,99492.06
2022-08-07T06:45:35.796Z,99494.61
2022-08-07T06:46:40.655Z,99494.16
2022-08-07T06:47:47.983Z,99499.95
2022-08-07T06:48:59.053Z,99501.34
2022-08-07T06:50:01.715Z,99498.23
2022-08-07T06:51:15.392Z,99496.85
2022-08-07T06:52:35.255Z,99500.55
2022-08-07T06:55:28.485Z,99499.29
2022-08-07T06:55:31.896Z,99503.45
2022-08-07T06:56:48.500Z,99503.34
2022-08-07T06:58:06.248Z,99507.54
2022-08-07T07:00:12.199Z,99500.52
2022-08-07T07:00:46.332Z,99505.77
2022-08-07T07:01:51.075Z,99507.19
2022-08-07T07:03:00.606Z,99503.63
2022-08-07T07:04:32.435Z,99509.84
2022-08-07T07:06:03.845Z,99511.13
2022-08-07T07:07:00.158Z,99509.06
2022-08-07T07:08:06.656Z,99511.56
2022-08-07T07:09:25.580Z,99513.48
2022-08-07T07:10:35.107Z,99515.20
2022-08-07T07:12:07.792Z,99510.05
2022-08-07T07:13:13.223Z,99510.75
2022-08-07T07:14:18.519Z,99515.88
2022-08-07T07:15:35.733Z,99514.86
2022-08-07T07:16:49.495Z,99514.92
2022-08-07T07:18:05.548Z,99512.36
2022-08-07T07:19:56.870Z,99513.42
2022-08-07T07:20:50.252Z,99513.03
2022-08-07T07:22:04.760Z,99512.50
2022-08-07T07:24:09.133Z,99511.52
2022-08-07T07:24:39.170Z,99509.38
2022-08-07T07:26:32.840Z,99507.77
2022-08-07T07:27:16.111Z,99509.42
2022-08-07T07:28:42.131Z,99509.35
2022-08-07T07:30:07.559Z,99506.83
2022-08-07T07:31:21.440Z,99506.61
2022-08-07T07:32:25.747Z,99506.19
2022-08-07T07:33:30.605Z,99506.81
2022-08-07T07:34:36.545Z,99505.92
2022-08-07T07:36:04.965Z,99505.85
2022-08-07T07:37:21.635Z,99507.48
2022-08-07T07:38:32.882Z,99501.05
2022-08-07T07:39:52.015Z,99500.52
2022-08-07T07:41:02.733Z,99501.63
2022-08-07T07:42:13.486Z,99498.70
2022-08-07T07:43:18.752Z,99493.95
2022-08-07T07:44:33.552Z,99492.52
2022-08-07T07:46:36.587Z,99494.17
2022-08-07T07:47:15.922Z,99487.30
2022-08-07T07:48:35.223Z,99485.98
2022-08-07T07:50:32.646Z,99487.41
2022-08-07T07:51:07.839Z,99488.08
2022-08-07T07:52:13.174Z,99490.16
2022-08-07T07:53:23.078Z,99490.38
2022-08-07T07:54:30.690Z,99490.30
2022-08-07T07:55:37.630Z,99490.39
2022-08-07T07:56:49.492Z,99491.05
2022-08-07T07:57:58.253Z,99487.27
2022-08-07T07:59:03.265Z,99488.14
2022-08-07T08:00:09.447Z,99491.33
2022-08-07T08:02:01.812Z,99492.31
2022-08-07T08:03:05.091Z,99491.42
2022-08-07T08:04:11.551Z,99491.38
2022-08-07T08:05:18.067Z,99493.48
2022-08-07T08:06:26.721Z,99488.16
2022-08-07T08:07:35.700Z,99493.88
2022-08-07T08:08:46.176Z,99490.23
2022-08-07T08:10:04.979Z,99490.67
2022-08-07T08:11:16.489Z,99492.77
2022-08-07T08:12:51.520Z,99492.51
2022-08-07T08:13:55.850Z,99493.64
2022-08-07T08:14:57.883Z,99493.40
2022-08-07T08:16:02.732Z,99492.55
2022-08-07T08:17:55.554Z,99495.04
2022-08-07T08:18:31.214Z,99492.55
2022-08-07T08:20:19.429Z,99492.19
2022-08-07T08:21:02.948Z,99498.42
2022-08-07T08:22:32.633Z,99497.24
2022-08-07T08:23:55.144Z,99496.17
2022-08-07T08:25:26.283Z,99497.23
2022-08-07T08:27:00.249Z,99496.14
2022-08-07T08:28:04.541Z,99497.84
2022-08-07T08:29:08.411Z,99498.66
2022-08-07T08:30:14.249Z,99497.69
2022-08-07T08:31:59.050Z,99495.98
2022-08-07T08:32:56.036Z,99498.80
2022-08-07T08:34:01.508Z,99497.66
2022-08-07T08:35:08.619Z,99494.98
2022-08-07T08:36:13.440Z,99493.75
2022-08-07T08:38:00.650Z,99492.80
2022-08-07T08:38:48.251Z,99494.73
2022-08-07T08:39:55.139Z,99494.09
2022-08-07T08:41:22.978Z,99494.75
2022-08-07T08:42:43.446Z,99496.71
2022-08-07T08:43:59.542Z,99493.38
2022-08-07T08:45:05.622Z,99490.90
2022-08-07T08:46:21.971Z,99491.14
2022-08-07T08:47:34.378Z,99492.08
2022-08-07T08:49:16.554Z,99494.73
2022-08-07T08:50:39.628Z,99492.61
2022-08-07T08:52:14.041Z,99488.64
2022-08-07T08:53:45.883Z,99492.16
2022-08-07T08:55:01.059Z,99494.06
2022-08-07T08:56:12.154Z,99496.70
2022-08-07T08:57:30.272Z,99491.01
2022-08-07T08:58:43.600Z,99490.77
2022-08-07T08:59:50.198Z,99494.75
2022-08-07T09:01:01.046Z,99492.15
2022-08-07T09:02:49.348Z,99492.17
2022-08-07T09:04:30.199Z,99490.77
2022-08-07T09:05:50.573Z,99496.52
2022-08-07T09:07:14.401Z,99491.80
2022-08-07T09:08:29.035Z,99488.96
2022-08-07T09:10:00.006Z,99488.70
2022-08-07T09:11:24.703Z,99489.32
2022-08-07T09:13:18.244Z,99491.43
2022-08-07T09:14:34.032Z,99486.15
2022-08-07T09:16:20.523Z,99484.19
2022-08-07T09:17:59.249Z,99481.46
2022-08-07T09:18:58.554Z,99478.67
2022-08-07T09:20:37.148Z,99476.27
2022-08-07T09:22:09.725Z,99476.36
2022-08-07T09:24:32.049Z,99479.33
2022-08-07T09:25:14.561Z,99474.33
2022-08-07T09:26:31.543Z,99472.98
2022-08-07T09:28:00.459Z,99470.54
2022-08-07T09:30:05.999Z,99477.98
2022-08-07T09:30:52.906Z,99473.04
2022-08-07T09:32:33.660Z,99476.23
2022-08-07T09:34:18.097Z,99476.04
2022-08-07T09:36:01.077Z,99471.67
2022-08-07T09:37:21.170Z,99472.71
2022-08-07T09:38:54.754Z,99469.73
2022-08-07T09:40:08.890Z,99469.36
2022-08-07T09:41:58.886Z,99469.02
2022-08-07T09:44:06.585Z,99469.48
2022-08-07T09:47:23.589Z,99473.14
2022-08-07T09:47:42.523Z,99468.81
2022-08-07T09:50:03.979Z,99465.48
2022-08-07T09:50:39.991Z,99467.73
2022-08-07T09:52:33.634Z,99463.81
2022-08-07T09:53:47.961Z,99469.17
2022-08-07T09:55:17.247Z,99463.77
2022-08-07T09:56:46.739Z,99462.38
2022-08-07T09:58:38.737Z,99460.13
2022-08-07T10:00:05.607Z,99461.85
2022-08-07T10:01:53.421Z,99456.90
2022-08-07T10:04:05.725Z,99463.80
2022-08-07T10:05:16.160Z,99462.95
2022-08-07T10:06:49.100Z,99460.01
2022-08-07T10:08:28.369Z,99459.41
2022-08-07T10:10:00.608Z,99460.36
2022-08-07T10:11:59.753Z,99463.67
2022-08-07T10:13:54.938Z,99460.63
2022-08-07T10:15:15.353Z,99457.51
2022-08-07T10:16:34.305Z,99456.13
2022-08-07T10:18:03.438Z,99453.27
2022-08-07T10:19:11.259Z,99453.08
2022-08-07T10:20:39.703Z,99449.31
2022-08-07T10:22:33.269Z,99451.65
2022-08-07T10:24:10.023Z,99451.83
2022-08-07T10:25:44.176Z,99448.30
2022-08-07T10:26:53.340Z,99441.15
2022-08-07T10:28:23.502Z,99441.45
2022-08-07T10:29:39.363Z,99441.45
2022-08-07T10:31:10.974Z,99442.70
2022-08-07T10:32:52.252Z,99441.85
2022-08-07T10:34:15.111Z,99439.42
2022-08-07T10:35:55.262Z,99435.02
2022-08-07T10:38:00.106Z,99438.23
2022-08-07T10:39:05.450Z,99434.76
2022-08-07T10:40:21.760Z,99433.10
2022-08-07T10:41:46.357Z,99428.06
2022-08-07T10:42:58.245Z,99428.17
2022-08-07T10:44:39.168Z,99430.52
2022-08-07T10:45:58.058Z,99427.84
2022-08-07T10:47:11.957Z,99422.36
2022-08-07T10:48:24.489Z,99421.05
2022-08-07T10:49:51.240Z,99418.92
2022-08-07T10:51:06.376Z,99427.38
2022-08-07T10:52:31.713Z,99426.11
2022-08-07T10:53:47.472Z,99420.90
2022-08-07T10:55:27.001Z,99416.48
2022-08-07T10:56:58.650Z,99418.44
2022-08-07T10:58:15.812Z,99413.58
2022-08-07T10:59:57.885Z,99415.52
2022-08-07T11:01:35.507Z,99411.07
2022-08-07T11:03:17.065Z,99405.90
2022-08-07T11:04:32.043Z,99407.39
2022-08-07T11:06:02.735Z,99404.70
2022-08-07T11:07:56.175Z,99410.96
2022-08-07T11:08:54.705Z,99402.31
2022-08-07T11:10:08.831Z,99401.13
2022-08-07T11:11:25.754Z,99399.15
2022-08-07T11:12:43.168Z,99400.44
2022-08-07T11:14:56.623Z,99400.67
2022-08-07T11:15:54.391Z,99402.24
2022-08-07T11:17:02.136Z,99399.33
2022-08-07T11:18:25.079Z,99397.04
2022-08-07T11:19:45.652Z,99400.50
2022-08-07T11:21:20.237Z,99398.31
2022-08-07T11:22:37.114Z,99398.00
2022-08-07T11:24:20.018Z,99394.52
2022-08-07T11:25:50.056Z,99388.59
2022-08-07T11:27:20.643Z,99387.64
2022-08-07T11:28:55.180Z,99385.28
2022-08-07T11:30:18.636Z,99381.52
2022-08-07T11:31:27.001Z,99386.54
2022-08-07T11:32:40.610Z,99380.42
2022-08-07T11:33:59.393Z,99380.05
2022-08-07T11:35:16.679Z,99381.45
2022-08-07T11:36:35.875Z,99384.58
2022-08-07T11:37:58.146Z,99383.81
2022-08-07T11:39:58.889Z,99391.27
2022-08-07T11:41:18.270Z,99393.58
2022-08-07T11:42:37.536Z,99388.63
2022-08-07T11:44:12.614Z,99385.73
2022-08-07T11:45:55.296Z,99394.83
2022-08-07T11:47:04.453Z,99394.09
2022-08-07T11:48:44.171Z,99396.05
2022-08-07T11:50:30.380Z,99390.90
2022-08-07T11:51:41.501Z,99387.14
2022-08-07T11:53:08.919Z,99386.75
2022-08-07T11:54:31.482Z,99380.30
2022-08-07T11:56:15.765Z,99379.29
2022-08-07T11:58:00.640Z,99381.20
2022-08-07T12:00:07.623Z,99379.30
2022-08-07T12:01:01.855Z,99384.83
2022-08-07T12:02:52.573Z,99384.73
2022-08-07T12:04:34.133Z,99383.91
2022-08-07T12:05:49.489Z,99385.73
2022-08-07T12:07:08.048Z,99389.04
2022-08-07T12:08:25.968Z,99391.02
2022-08-07T12:09:46.140Z,99394.95
2022-08-07T12:11:20.402Z,99393.45
2022-08-07T12:12:34.687Z,99389.08
2022-08-07T12:13:53.760Z,99385.55
2022-08-07T12:15:08.213Z,99379.42
2022-08-07T12:16:31.641Z,99380.26
2022-08-07T12:17:59.422Z,99379.50
2022-08-07T12:19:22.017Z,99371.50
2022-08-07T12:20:30.707Z,99366.05
2022-08-07T12:22:39.575Z,99363.35
2022-08-07T12:24:06.305Z,99369.22
2022-08-07T12:26:21.875Z,99367.42
2022-08-07T12:27:18.541Z,99370.61
2022-08-07T12:29:00.735Z,99366.41
2022-08-07T12:30:08.914Z,99365.14
2022-08-07T12:31:52.492Z,99366.13
2022-08-07T12:33:18.763Z,99367.64
2022-08-07T12:34:31.783Z,99362.87
2022-08-07T12:35:36.565Z,99359.80
2022-08-07T12:36:42.294Z,99355.40
2022-08-07T12:38:09.313Z,99352.33
2022-08-07T12:39:43.981Z,99355.08
2022-08-07T12:40:47.072Z,99354.98
2022-08-07T12:41:53.574Z,99356.30
2022-08-07T12:43:01.765Z,99357.95
2022-08-07T12:44:12.906Z,99359.43
2022-08-07T12:45:27.299Z,99355.13
2022-08-07T12:46:48.817Z,99361.72
2022-08-07T12:48:28.510Z,99355.24
2022-08-07T12:50:33.971Z,99357.73
2022-08-07T12:51:51.397Z,99346.98
2022-08-07T12:53:22.406Z,99351.60
2022-08-07T12:54:38.097Z,99347.42
2022-08-07T12:56:03.010Z,99348.83
2022-08-07T12:57:10.290Z,99349.13
2022-08-07T12:58:16.388Z,99346.62
2022-08-07T12:59:33.005Z,99343.52
2022-08-07T13:00:50.139Z,99340.38
2022-08-07T13:02:01.314Z,99338.35
2022-08-07T13:03:56.279Z,99338.85
2022-08-07T13:06:03.240Z,99334.58
2022-08-07T13:08:14.096Z,99331.93
2022-08-07T13:10:20.115Z,99335.33
2022-08-07T13:10:59.960Z,99330.60
2022-08-07T13:12:29.087Z,99333.83
2022-08-07T13:13:53.790Z,99331.08
2022-08-07T13:15:34.482Z,99332.10
2022-08-07T13:17:09.412Z,99335.77
2022-08-07T13:18:28.332Z,99335.30
2022-08-07T13:19:35.145Z,99336.42
2022-08-07T13:21:00.969Z,99335.61
2022-08-07T13:22:19.791Z,99336.56
2022-08-07T13:24:01.752Z,99331.77
2022-08-07T13:25:15.222Z,99327.33
2022-08-07T13:26:35.058Z,99323.30
2022-08-07T13:28:11.458Z,99328.02
2022-08-07T13:29:42.382Z,99323.21
2022-08-07T13:31:02.147Z,99328.88
2022-08-07T13:32:32.493Z,99327.86
2022-08-07T13:34:30.139Z,99327.61
2022-08-07T13:35:59.818Z,99319.35
2022-08-07T13:37:21.711Z,99316.39
2022-08-07T13:38:34.811Z,99319.53
2022-08-07T13:40:33.353Z,99316.42
2022-08-07T13:41:48.374Z,99320.59
2022-08-07T13:42:54.224Z,99323.95
2022-08-07T13:44:02.415Z,99321.38
2022-08-07T13:46:06.434Z,99318.00
2022-08-07T13:46:41.829Z,99319.27
2022-08-07T13:48:08.106Z,99319.36
2022-08-07T13:50:33.870Z,99316.85
2022-08-07T13:50:45.267Z,99313.37
2022-08-07T13:52:31.614Z,99313.38
2022-08-07T13:53:59.620Z,99315.30
2022-08-07T13:55:06.480Z,99312.44
2022-08-07T13:56:09.869Z,99313.77
2022-08-07T13:57:24.094Z,99311.33
2022-08-07T13:59:12.142Z,99312.34
2022-08-07T14:00:26.892Z,99311.33
2022-08-07T14:01:33.512Z,99308.58
2022-08-07T14:02:58.647Z,99308.76
2022-08-07T14:04:16.758Z,99300.96
2022-08-07T14:05:28.987Z,99303.17
2022-08-07T14:06:43.545Z,99302.16
2022-08-07T14:08:01.022Z,99301.00
2022-08-07T14:09:09.823Z,99302.67
2022-08-07T14:10:24.709Z,99298.05
2022-08-07T14:11:53.717Z,99302.14
2022-08-07T14:13:03.725Z,99299.30
2022-08-07T14:14:15.550Z,99299.88
2022-08-07T14:15:35.944Z,99299.74
2022-08-07T14:16:49.816Z,99297.08
2022-08-07T14:18:27.964Z,99296.08
2022-08-07T14:20:43.428Z,99295.52
2022-08-07T14:22:36.023Z,99294.00
2022-08-07T14:22:41.098Z,99292.77
2022-08-07T14:24:01.107Z,99292.26
2022-08-07T14:25:17.121Z,99295.98
2022-08-07T14:26:31.800Z,99295.00
2022-08-07T14:28:12.251Z,99289.40
2022-08-07T14:30:06.728Z,99293.16
2022-08-07T14:30:32.970Z,99289.77
2022-08-07T14:31:42.900Z,99287.04
2022-08-07T14:32:58.051Z,99283.41
2022-08-07T14:34:01.635Z,99284.23
2022-08-07T14:35:43.038Z,99278.73
2022-08-07T14:36:42.199Z,99274.49
2022-08-07T14:38:03.243Z,99274.87
2022-08-07T14:39:12.497Z,99273.54
2022-08-07T14:40:35.354Z,99272.96
2022-08-07T14:42:18.439Z,99272.74
2022-08-07T14:43:58.663Z,99270.61
2022-08-07T14:44:38.976Z,99270.27
2022-08-07T14:45:49.493Z,99275.73
2022-08-07T14:47:14.156Z,99275.48
2022-08-07T14:48:20.732Z,99275.00
2022-08-07T14:50:55.808Z,99271.17
2022-08-07T14:54:03.735Z,99275.23
2022-08-07T14:54:54.063Z,99273.88
2022-08-07T14:56:00.931Z,99272.41
2022-08-07T14:57:09.714Z,99268.44
2022-08-07T14:58:24.154Z,99264.42
2022-08-07T15:00:04.770Z,99266.64
2022-08-07T15:00:52.636Z,99269.77
2022-08-07T15:01:58.722Z,99265.70
2022-08-07T15:03:16.394Z,99271.56
2022-08-07T15:04:25.229Z,99269.63
2022-08-07T15:05:30.356Z,99266.35
2022-08-07T15:06:35.466Z,99268.11
2022-08-07T15:07:47.642Z,99266.70
2022-08-07T15:10:19.749Z,99261.34
2022-08-07T15:11:53.380Z,99261.10
2022-08-07T15:13:00.989Z,99263.23